Time;durP1;ratioP1;P1;durP2;ratioP2;P2;SDS_P1;SDS_P2;PMS_P1;PMS_P2;Temp;Humidity;BMP_temperature;BMP_pressure;BME280_temperature;BME280_humidity;BME280_pressure;Samples;Min_cycle;Max_cycle;Signal;HPM_P1;HPM_P2
2023/06/07 00:00:46;;;;;;;2.28;1.90;;;13.20;99.90;;;;;;5046474;28;20896;-80
2023/06/07 00:03:14;;;;;;;2.30;1.70;;;13.10;99.90;;;;;;5082799;28;20054;-80
2023/06/07 00:05:43;;;;;;;2.10;1.80;;;13.20;99.90;;;;;;5079531;28;20056;-80
2023/06/07 00:08:10;;;;;;;2.95;1.73;;;13.20;99.90;;;;;;5049369;28;20051;-80
2023/06/07 00:10:37;;;;;;;2.65;1.60;;;13.10;99.90;;;;;;5082537;28;20048;-80
2023/06/07 00:13:04;;;;;;;2.85;1.63;;;13.10;99.90;;;;;;5082064;28;20048;-80
2023/06/07 00:15:30;;;;;;;1.88;1.45;;;13.20;99.90;;;;;;5081877;28;20052;-80
2023/06/07 00:17:59;;;;;;;3.13;1.92;;;13.20;99.90;;;;;;5081468;28;20071;-80
2023/06/07 00:20:27;;;;;;;2.25;1.75;;;13.20;99.90;;;;;;5081063;28;20051;-79
2023/06/07 00:22:57;;;;;;;2.70;1.85;;;13.20;99.90;;;;;;5081595;28;20348;-80
2023/06/07 00:25:25;;;;;;;3.72;1.98;;;13.10;99.90;;;;;;5062537;28;20064;-79
2023/06/07 00:27:52;;;;;;;2.65;1.88;;;13.00;99.90;;;;;;5079096;28;20052;-80
2023/06/07 00:30:19;;;;;;;3.80;2.10;;;13.10;99.90;;;;;;5048280;28;20044;-79
2023/06/07 00:32:46;;;;;;;2.00;1.60;;;13.10;99.90;;;;;;5076383;28;20052;-80
2023/06/07 00:35:13;;;;;;;2.13;1.55;;;13.10;99.90;;;;;;5079098;28;20043;-79
2023/06/07 00:37:41;;;;;;;2.03;1.60;;;13.10;99.90;;;;;;5077599;28;20044;-80
2023/06/07 00:40:08;;;;;;;3.42;1.75;;;13.20;99.90;;;;;;5064547;28;20491;-80
2023/06/07 00:42:35;;;;;;;2.20;1.55;;;13.20;99.90;;;;;;5081045;28;20705;-79
2023/06/07 00:45:02;;;;;;;2.90;1.83;;;13.10;99.90;;;;;;5081508;28;20040;-80
2023/06/07 00:47:28;;;;;;;2.85;1.73;;;13.10;99.90;;;;;;5060452;28;20044;-78
2023/06/07 00:49:56;;;;;;;2.45;1.95;;;13.00;99.90;;;;;;5079548;28;20628;-80
2023/06/07 00:52:23;;;;;;;2.40;1.85;;;13.00;99.90;;;;;;5082356;28;20043;-79
2023/06/07 00:54:50;;;;;;;2.55;1.73;;;12.90;99.90;;;;;;5063831;28;20097;-80
2023/06/07 00:57:17;;;;;;;3.85;2.00;;;12.90;99.90;;;;;;5064476;28;20052;-80
2023/06/07 00:59:43;;;;;;;2.10;1.83;;;12.90;99.90;;;;;;5062082;28;20506;-80
2023/06/07 01:02:14;;;;;;;3.53;1.88;;;12.90;99.90;;;;;;5059745;28;20136;-80
2023/06/07 01:04:42;;;;;;;2.83;1.90;;;12.80;99.90;;;;;;5076945;28;20052;-80
2023/06/07 01:07:09;;;;;;;2.67;1.80;;;12.80;99.90;;;;;;5060461;28;20052;-80
2023/06/07 01:09:35;;;;;;;3.28;2.10;;;12.80;99.90;;;;;;5044959;28;20112;-79
2023/06/07 01:12:06;;;;;;;4.28;1.58;;;12.80;99.90;;;;;;5080971;28;20051;-79
2023/06/07 01:14:33;;;;;;;3.05;1.83;;;12.80;99.90;;;;;;5080311;28;20093;-79
2023/06/07 01:17:02;;;;;;;2.25;1.58;;;12.90;99.90;;;;;;5047486;28;20131;-79
2023/06/07 01:19:29;;;;;;;2.95;1.40;;;12.90;99.90;;;;;;5063135;28;20063;-79
2023/06/07 01:21:59;;;;;;;3.22;2.20;;;12.90;99.90;;;;;;5080764;28;20060;-79
2023/06/07 01:24:29;;;;;;;3.72;1.77;;;12.80;99.90;;;;;;5063726;28;20055;-79
2023/06/07 01:26:57;;;;;;;2.30;1.73;;;12.80;99.90;;;;;;5048361;28;20059;-79
2023/06/07 01:29:27;;;;;;;3.25;2.13;;;12.70;99.90;;;;;;5063768;28;20060;-79
2023/06/07 01:31:54;;;;;;;1.90;1.58;;;12.80;99.90;;;;;;5059634;28;20032;-80
2023/06/07 01:34:21;;;;;;;3.70;2.72;;;12.70;99.90;;;;;;5073477;28;20468;-79
2023/06/07 01:36:48;;;;;;;2.80;2.17;;;12.60;99.90;;;;;;5080359;28;20051;-80
2023/06/07 01:39:15;;;;;;;3.35;1.85;;;12.60;99.90;;;;;;5064092;28;20048;-79
2023/06/07 01:41:42;;;;;;;2.53;1.65;;;12.70;99.90;;;;;;5067800;28;20052;-79
2023/06/07 01:44:08;;;;;;;2.50;1.70;;;12.60;99.90;;;;;;5050904;28;20051;-80
2023/06/07 01:46:35;;;;;;;3.17;2.00;;;12.70;99.90;;;;;;5065523;28;20052;-78
2023/06/07 01:49:03;;;;;;;4.20;1.85;;;12.70;99.90;;;;;;5064400;28;20548;-80
2023/06/07 01:51:30;;;;;;;3.55;1.90;;;12.60;99.90;;;;;;5064559;28;20114;-80
2023/06/07 01:53:57;;;;;;;2.13;1.33;;;12.60;99.90;;;;;;5082728;28;20044;-80
2023/06/07 01:56:25;;;;;;;2.20;1.63;;;12.60;99.90;;;;;;5033189;28;20052;-80
2023/06/07 01:59:33;;;;;;;2.90;1.73;;;12.60;99.90;;;;;;5082551;28;20078;-79
2023/06/07 02:02:20;;;;;;;2.72;1.65;;;12.60;99.90;;;;;;5083264;28;20119;-80
2023/06/07 02:04:49;;;;;;;3.35;2.30;;;12.60;99.90;;;;;;5076887;28;20083;-80
2023/06/07 02:07:22;;;;;;;4.03;1.77;;;12.70;99.90;;;;;;5065722;28;20048;-80
2023/06/07 02:09:49;;;;;;;2.40;1.60;;;12.50;99.90;;;;;;5082657;28;20048;-80
2023/06/07 02:12:16;;;;;;;4.00;1.88;;;12.50;99.90;;;;;;5062333;28;20047;-80
2023/06/07 02:14:43;;;;;;;2.63;2.13;;;12.50;99.90;;;;;;5082532;28;20146;-80
2023/06/07 02:17:10;;;;;;;3.65;1.88;;;12.50;99.90;;;;;;5065873;28;20135;-79
2023/06/07 02:19:38;;;;;;;2.10;1.70;;;12.40;99.90;;;;;;5049204;28;20125;-80
2023/06/07 02:22:06;;;;;;;2.63;1.73;;;12.30;99.90;;;;;;5064657;28;20050;-80
2023/06/07 02:24:33;;;;;;;3.13;2.00;;;12.30;99.90;;;;;;5085660;28;20124;-80
2023/06/07 02:27:00;;;;;;;3.58;1.90;;;12.30;99.90;;;;;;5067660;28;20040;-79
2023/06/07 02:29:27;;;;;;;3.45;2.15;;;12.30;99.90;;;;;;5084992;28;20154;-80
2023/06/07 02:31:57;;;;;;;2.40;1.90;;;12.30;99.90;;;;;;5082358;28;20124;-80
2023/06/07 02:34:24;;;;;;;3.38;2.10;;;12.30;99.90;;;;;;5068513;28;20055;-79
2023/06/07 02:36:51;;;;;;;2.80;1.98;;;12.30;99.90;;;;;;5068838;28;20079;-80
2023/06/07 02:39:18;;;;;;;4.13;2.22;;;12.30;99.90;;;;;;5068954;28;20052;-80
2023/06/07 02:41:45;;;;;;;2.80;1.77;;;12.30;99.90;;;;;;5068882;28;20040;-80
2023/06/07 02:44:11;;;;;;;3.60;1.92;;;12.30;99.90;;;;;;5085424;28;20048;-80
2023/06/07 02:46:38;;;;;;;2.85;2.17;;;12.30;99.90;;;;;;5052296;28;20040;-80
2023/06/07 02:49:05;;;;;;;3.13;1.90;;;12.30;99.90;;;;;;5067341;28;20048;-80
2023/06/07 02:51:32;;;;;;;2.75;2.03;;;12.30;99.90;;;;;;5080313;28;20108;-80
2023/06/07 02:54:00;;;;;;;2.42;1.70;;;12.30;99.90;;;;;;5085450;28;20063;-79
2023/06/07 02:56:29;;;;;;;3.60;1.90;;;12.30;99.90;;;;;;5052292;28;20047;-80
2023/06/07 02:58:56;;;;;;;2.58;1.83;;;12.30;99.90;;;;;;5069032;28;20072;-79
2023/06/07 03:01:27;;;;;;;3.40;2.17;;;12.40;99.90;;;;;;5052342;28;20101;-79
2023/06/07 03:03:55;;;;;;;2.55;1.60;;;12.40;99.90;;;;;;5067483;28;20566;-80
2023/06/07 03:06:21;;;;;;;3.50;1.63;;;12.40;99.90;;;;;;5085800;28;20610;-79
2023/06/07 03:08:49;;;;;;;4.82;1.90;;;12.50;99.90;;;;;;5067801;28;20040;-80
2023/06/07 03:11:15;;;;;;;3.13;1.90;;;12.40;99.90;;;;;;5068682;28;20450;-79
2023/06/07 03:13:42;;;;;;;2.55;2.00;;;12.40;99.90;;;;;;5066485;28;20125;-79
2023/06/07 03:16:09;;;;;;;2.50;1.90;;;12.40;99.90;;;;;;5066176;28;20083;-79
2023/06/07 03:18:36;;;;;;;3.05;1.95;;;12.40;99.90;;;;;;5084410;28;20055;-79
2023/06/07 03:21:03;;;;;;;2.75;1.95;;;12.40;99.90;;;;;;5064206;28;20048;-79
2023/06/07 03:23:30;;;;;;;2.58;1.85;;;12.40;99.90;;;;;;5085682;28;20337;-80
2023/06/07 03:25:58;;;;;;;2.80;1.77;;;12.40;99.90;;;;;;5079075;28;20044;-79
2023/06/07 03:28:26;;;;;;;3.42;1.88;;;12.40;99.90;;;;;;5081845;28;20059;-79
2023/06/07 03:30:53;;;;;;;2.80;2.17;;;12.40;99.90;;;;;;5086251;28;20405;-80
2023/06/07 03:33:20;;;;;;;2.63;2.05;;;12.30;99.90;;;;;;5084353;28;21082;-80
2023/06/07 03:35:46;;;;;;;3.83;2.00;;;12.30;99.90;;;;;;5067381;28;20044;-80
2023/06/07 03:38:13;;;;;;;3.35;1.80;;;12.30;99.90;;;;;;5084813;28;20579;-79
2023/06/07 03:40:40;;;;;;;2.70;2.28;;;12.30;99.90;;;;;;5086389;28;20047;-79
2023/06/07 03:43:07;;;;;;;2.75;1.75;;;12.30;99.90;;;;;;5086405;28;20044;-79
2023/06/07 03:45:34;;;;;;;2.65;1.90;;;12.20;99.90;;;;;;5084832;28;20441;-78
2023/06/07 03:48:00;;;;;;;2.92;2.05;;;12.20;99.90;;;;;;5084037;28;20494;-79
2023/06/07 03:50:27;;;;;;;2.22;1.75;;;12.20;99.90;;;;;;5083984;28;20040;-81
2023/06/07 03:52:54;;;;;;;3.45;1.98;;;12.20;99.90;;;;;;5084528;28;20522;-79
2023/06/07 03:55:21;;;;;;;2.67;1.92;;;12.20;99.90;;;;;;5086104;28;20039;-79
2023/06/07 03:57:48;;;;;;;4.15;2.17;;;12.20;99.90;;;;;;5084895;28;20051;-79
2023/06/07 04:00:17;;;;;;;3.25;2.05;;;12.30;99.90;;;;;;5067480;28;20040;-78
2023/06/07 04:02:44;;;;;;;2.78;2.10;;;12.30;99.90;;;;;;5066924;28;20060;-78
2023/06/07 04:05:11;;;;;;;2.15;1.73;;;12.30;99.90;;;;;;5084167;28;20052;-79
2023/06/07 04:07:40;;;;;;;4.47;2.00;;;12.30;99.90;;;;;;5085217;28;20052;-79
2023/06/07 04:10:07;;;;;;;2.88;1.70;;;12.30;99.90;;;;;;5084234;28;20058;-79
2023/06/07 04:12:34;;;;;;;2.53;1.70;;;12.20;99.90;;;;;;5084734;28;20040;-79
2023/06/07 04:15:01;;;;;;;4.80;1.80;;;12.20;99.90;;;;;;5083528;28;20043;-80
2023/06/07 04:17:28;;;;;;;2.97;2.05;;;12.10;99.90;;;;;;5081875;28;20072;-79
2023/06/07 04:19:56;;;;;;;2.83;2.10;;;12.10;99.90;;;;;;5049758;28;20044;-79
2023/06/07 04:22:24;;;;;;;2.70;1.80;;;12.10;99.90;;;;;;5050000;28;20036;-79
2023/06/07 04:24:51;;;;;;;2.88;2.00;;;12.10;99.90;;;;;;5065586;28;20048;-80
2023/06/07 04:27:18;;;;;;;3.53;2.40;;;12.10;99.90;;;;;;5046604;28;20102;-80
2023/06/07 04:29:48;;;;;;;3.15;2.13;;;12.00;99.90;;;;;;5083831;28;20089;-81
2023/06/07 04:32:18;;;;;;;2.80;2.20;;;12.10;99.90;;;;;;5080944;28;20111;-79
2023/06/07 04:34:48;;;;;;;3.38;1.80;;;12.10;99.90;;;;;;5082346;28;20062;-80
2023/06/07 04:37:16;;;;;;;2.75;1.92;;;12.10;99.90;;;;;;5064718;28;20049;-80
2023/06/07 04:39:44;;;;;;;3.63;2.33;;;12.10;99.90;;;;;;5063675;28;20049;-80
2023/06/07 04:42:11;;;;;;;3.85;1.90;;;12.10;99.90;;;;;;5055560;28;20746;-79
2023/06/07 04:44:38;;;;;;;2.08;1.65;;;12.20;99.90;;;;;;5079882;28;20040;-80
2023/06/07 04:47:05;;;;;;;2.53;1.73;;;12.20;99.90;;;;;;5066426;28;20631;-80
2023/06/07 04:49:38;;;;;;;2.80;2.15;;;12.20;99.90;;;;;;5061102;28;20076;-80
2023/06/07 04:52:06;;;;;;;2.30;1.83;;;12.20;99.90;;;;;;5060897;28;20105;-79
2023/06/07 04:54:36;;;;;;;3.72;2.40;;;12.30;99.90;;;;;;5057097;28;20128;-79
2023/06/07 04:57:04;;;;;;;3.25;2.53;;;12.20;99.90;;;;;;5078704;28;20139;-79
2023/06/07 04:59:34;;;;;;;3.63;2.47;;;12.20;99.90;;;;;;5063359;28;20142;-81
2023/06/07 05:02:02;;;;;;;3.28;2.22;;;12.20;99.90;;;;;;5078215;28;20048;-81
2023/06/07 05:04:30;;;;;;;2.92;1.95;;;12.20;99.90;;;;;;5063213;28;20060;-79
2023/06/07 05:06:58;;;;;;;2.80;1.83;;;12.20;99.90;;;;;;5058360;28;20071;-79
2023/06/07 05:09:25;;;;;;;2.58;1.85;;;12.30;99.90;;;;;;5075647;28;20052;-78
2023/06/07 05:11:56;;;;;;;3.05;2.17;;;12.30;99.90;;;;;;5048485;28;20080;-79
2023/06/07 05:14:23;;;;;;;2.45;2.00;;;12.30;99.90;;;;;;5064480;28;20056;-79
2023/06/07 05:16:51;;;;;;;3.80;2.38;;;12.30;99.90;;;;;;5060251;28;20087;-79
2023/06/07 05:19:18;;;;;;;3.33;2.10;;;12.30;99.90;;;;;;5077274;28;20052;-79
2023/06/07 05:21:45;;;;;;;3.25;2.17;;;12.30;99.90;;;;;;5078286;28;20119;-79
2023/06/07 05:24:12;;;;;;;2.88;2.05;;;12.30;99.90;;;;;;5055741;28;20052;-79
2023/06/07 05:26:43;;;;;;;3.08;2.15;;;12.30;99.90;;;;;;5077607;28;20048;-79
2023/06/07 05:29:10;;;;;;;3.08;2.13;;;12.20;99.90;;;;;;5077867;28;20109;-79
2023/06/07 05:31:39;;;;;;;4.00;2.33;;;12.20;99.90;;;;;;5056644;28;20480;-80
2023/06/07 05:34:07;;;;;;;2.60;2.00;;;12.20;99.90;;;;;;5057439;28;20044;-79
2023/06/07 05:36:34;;;;;;;3.47;2.00;;;12.30;99.90;;;;;;5077452;28;20076;-79
2023/06/07 05:39:02;;;;;;;3.17;2.10;;;12.30;99.90;;;;;;5058728;28;20083;-79
2023/06/07 05:41:30;;;;;;;3.42;1.98;;;12.40;99.90;;;;;;5059557;28;20089;-79
2023/06/07 05:43:56;;;;;;;3.00;1.50;;;12.40;99.90;;;;;;5075283;28;20457;-79
2023/06/07 05:46:23;;;;;;;2.38;1.60;;;12.40;99.90;;;;;;5073502;28;20063;-79
2023/06/07 05:48:50;;;;;;;3.22;2.42;;;12.50;99.90;;;;;;5058004;28;20056;-79
2023/06/07 05:51:17;;;;;;;6.20;2.42;;;12.50;99.90;;;;;;5039910;28;20045;-79
2023/06/07 05:53:45;;;;;;;3.33;2.45;;;12.40;99.90;;;;;;5071205;28;20125;-79
2023/06/07 05:56:16;;;;;;;4.93;2.40;;;12.50;99.90;;;;;;5039387;28;20144;-80
2023/06/07 05:58:44;;;;;;;3.70;1.88;;;12.50;99.90;;;;;;5060636;28;20737;-79
2023/06/07 06:01:13;;;;;;;2.75;2.38;;;12.60;99.90;;;;;;5073975;28;20167;-79
2023/06/07 06:03:40;;;;;;;2.30;1.75;;;12.60;99.90;;;;;;5059850;28;20088;-79
2023/06/07 06:06:15;;;;;;;2.63;1.70;;;12.60;99.90;;;;;;5074755;28;20169;-80
2023/06/07 06:08:42;;;;;;;2.65;1.90;;;12.70;99.90;;;;;;5070084;28;20048;-79
2023/06/07 06:11:10;;;;;;;3.83;2.10;;;12.70;99.90;;;;;;5073608;28;20048;-79
2023/06/07 06:13:39;;;;;;;3.00;2.00;;;12.80;99.90;;;;;;5076642;28;20449;-77
2023/06/07 06:16:06;;;;;;;3.30;1.77;;;12.90;99.90;;;;;;5080701;28;20048;-79
2023/06/07 06:18:39;;;;;;;3.80;2.15;;;12.90;99.90;;;;;;5037799;28;20063;-78
2023/06/07 06:21:06;;;;;;;2.40;1.67;;;12.90;99.90;;;;;;5055596;28;20055;-79
2023/06/07 06:23:32;;;;;;;3.85;2.58;;;13.00;99.90;;;;;;5077615;28;20104;-79
2023/06/07 06:25:59;;;;;;;2.80;1.98;;;13.00;99.90;;;;;;5064401;28;20070;-79
2023/06/07 06:28:26;;;;;;;3.45;2.25;;;13.00;99.90;;;;;;5098126;28;20148;-78
2023/06/07 06:30:53;;;;;;;2.78;2.10;;;13.00;99.90;;;;;;5079320;28;20533;-79
2023/06/07 06:33:20;;;;;;;2.95;2.08;;;13.00;99.90;;;;;;5078849;28;20524;-79
2023/06/07 06:35:47;;;;;;;2.50;1.70;;;13.10;99.90;;;;;;5060059;28;20055;-79
2023/06/07 06:38:15;;;;;;;2.55;2.00;;;13.10;99.90;;;;;;5077525;28;20058;-79
2023/06/07 06:40:42;;;;;;;3.90;2.30;;;13.10;99.90;;;;;;5043967;28;20052;-79
2023/06/07 06:43:08;;;;;;;3.95;2.45;;;13.10;99.90;;;;;;5060063;28;20055;-80
2023/06/07 06:45:35;;;;;;;3.08;2.25;;;13.00;99.90;;;;;;5090286;28;20113;-81
2023/06/07 06:48:03;;;;;;;3.33;2.15;;;13.00;99.90;;;;;;5087301;28;20059;-89
2023/06/07 06:50:29;;;;;;;3.17;2.08;;;13.10;99.90;;;;;;5070590;28;20052;-89
2023/06/07 06:52:59;;;;;;;2.78;1.65;;;13.20;99.90;;;;;;5091037;28;20048;-89
2023/06/07 06:55:26;;;;;;;2.10;1.63;;;13.20;99.90;;;;;;5069760;28;20066;-89
2023/06/07 06:57:53;;;;;;;2.67;1.92;;;13.30;99.90;;;;;;5072232;28;20079;-89
2023/06/07 07:00:20;;;;;;;3.25;1.83;;;13.40;99.90;;;;;;5088173;28;20039;-87
2023/06/07 07:02:47;;;;;;;3.22;2.20;;;13.40;99.90;;;;;;5088347;28;20044;-89
2023/06/07 07:05:15;;;;;;;4.65;2.42;;;13.30;99.90;;;;;;5070928;28;20067;-89
2023/06/07 07:07:42;;;;;;;3.35;2.05;;;13.40;99.90;;;;;;5056753;28;20059;-89
2023/06/07 07:10:10;;;;;;;2.60;2.03;;;13.50;99.90;;;;;;5071996;28;20742;-89
2023/06/07 07:12:38;;;;;;;2.92;1.98;;;13.60;99.90;;;;;;5089460;28;20082;-88
2023/06/07 07:15:06;;;;;;;3.90;2.28;;;13.70;99.90;;;;;;5098522;28;20069;-89
2023/06/07 07:17:32;;;;;;;2.28;1.60;;;13.80;99.90;;;;;;5088638;28;20051;-87
2023/06/07 07:19:59;;;;;;;4.20;1.70;;;13.90;99.90;;;;;;5085140;28;20071;-89
2023/06/07 07:22:26;;;;;;;3.92;2.25;;;13.90;99.90;;;;;;5080837;28;20058;-87
2023/06/07 07:24:57;;;;;;;2.88;2.20;;;13.90;99.90;;;;;;5078632;28;20340;-89
2023/06/07 07:27:25;;;;;;;3.22;1.95;;;13.90;99.90;;;;;;5088474;28;20051;-89
2023/06/07 07:29:51;;;;;;;2.33;1.60;;;14.00;99.90;;;;;;5088838;28;20052;-89
2023/06/07 07:32:18;;;;;;;2.70;1.92;;;14.10;99.90;;;;;;5084555;28;20043;-89
2023/06/07 07:34:45;;;;;;;3.42;2.20;;;14.20;99.90;;;;;;5087667;28;20063;-89
2023/06/07 07:37:12;;;;;;;4.05;2.28;;;14.20;99.90;;;;;;5070337;28;20059;-87
2023/06/07 07:39:39;;;;;;;3.97;2.00;;;14.20;99.90;;;;;;5055409;28;20156;-89
2023/06/07 07:42:07;;;;;;;3.30;1.83;;;14.20;99.90;;;;;;5088330;28;20113;-89
2023/06/07 07:44:34;;;;;;;2.42;1.90;;;14.10;99.90;;;;;;5072210;28;20080;-89
2023/06/07 07:47:01;;;;;;;4.47;1.80;;;14.20;99.90;;;;;;5070658;28;20371;-89
2023/06/07 07:49:27;;;;;;;3.03;2.00;;;14.30;99.90;;;;;;5085976;28;20055;-87
2023/06/07 07:51:54;;;;;;;1.58;1.48;;;14.40;99.90;;;;;;5088114;28;20781;-88
2023/06/07 07:54:22;;;;;;;3.90;1.70;;;14.60;99.90;;;;;;5073352;28;20054;-89
2023/06/07 07:56:48;;;;;;;2.15;1.50;;;14.70;99.90;;;;;;5056339;28;20043;-88
2023/06/07 07:59:15;;;;;;;4.10;1.85;;;14.80;99.90;;;;;;5077317;28;20059;-88
2023/06/07 08:01:42;;;;;;;2.65;1.90;;;14.90;99.90;;;;;;5087026;28;20048;-88
2023/06/07 08:04:09;;;;;;;4.53;2.50;;;14.90;99.90;;;;;;5082401;28;20063;-87
2023/06/07 08:06:38;;;;;;;3.70;2.50;;;14.80;99.90;;;;;;5086957;28;20058;-88
2023/06/07 08:09:05;;;;;;;3.20;2.45;;;14.90;99.90;;;;;;5069325;28;20052;-89
2023/06/07 08:11:32;;;;;;;2.55;2.00;;;15.00;99.90;;;;;;5086202;28;20056;-87
2023/06/07 08:14:00;;;;;;;2.50;1.55;;;15.10;99.90;;;;;;5053426;28;20047;-89
2023/06/07 08:16:27;;;;;;;1.80;1.45;;;15.20;99.90;;;;;;5086877;28;20083;-87
2023/06/07 08:18:57;;;;;;;3.30;1.85;;;15.50;99.90;;;;;;5085367;28;20476;-87
2023/06/07 08:21:27;;;;;;;3.58;1.73;;;15.60;99.90;;;;;;5087051;28;20047;-88
2023/06/07 08:23:55;;;;;;;2.60;1.60;;;15.60;99.90;;;;;;5083482;28;20434;-89
2023/06/07 08:26:22;;;;;;;2.92;1.70;;;15.70;99.90;;;;;;5068895;28;20388;-87
2023/06/07 08:28:49;;;;;;;3.47;2.30;;;15.60;99.90;;;;;;5075059;28;20068;-88
2023/06/07 08:31:17;;;;;;;5.00;2.25;;;15.50;99.90;;;;;;5084200;28;20094;-88
2023/06/07 08:33:44;;;;;;;3.25;2.00;;;15.50;99.90;;;;;;5085629;28;20056;-87
2023/06/07 08:36:11;;;;;;;2.75;1.80;;;15.60;99.90;;;;;;5067531;28;20052;-89
2023/06/07 08:38:39;;;;;;;2.28;1.60;;;15.80;99.90;;;;;;5079329;28;20052;-90
2023/06/07 08:41:07;;;;;;;2.80;1.80;;;16.00;99.90;;;;;;5069572;28;20068;-89
2023/06/07 08:43:35;;;;;;;2.80;2.20;;;16.10;99.90;;;;;;5085977;28;20062;-86
2023/06/07 08:46:04;;;;;;;3.72;2.13;;;15.90;99.90;;;;;;5064411;28;20297;-89
2023/06/07 08:48:32;;;;;;;3.33;1.85;;;15.80;99.90;;;;;;5066817;28;20466;-89
2023/06/07 08:51:00;;;;;;;4.55;2.10;;;15.80;99.90;;;;;;5051344;28;20060;-89
2023/06/07 08:53:27;;;;;;;2.50;1.65;;;15.80;99.90;;;;;;5080874;28;20078;-89
2023/06/07 08:55:54;;;;;;;2.17;1.60;;;16.00;99.90;;;;;;5088422;28;20079;-89
2023/06/07 08:58:24;;;;;;;2.10;1.42;;;16.30;99.90;;;;;;5081605;28;20171;-90
2023/06/07 09:00:53;;;;;;;4.30;2.45;;;16.40;99.90;;;;;;5083051;28;20059;-90
2023/06/07 09:03:19;;;;;;;2.60;1.90;;;16.40;99.90;;;;;;5070512;28;20529;-89
2023/06/07 09:05:46;;;;;;;4.22;2.40;;;16.40;99.90;;;;;;5071442;28;20080;-87
2023/06/07 09:08:14;;;;;;;2.72;1.90;;;16.30;99.90;;;;;;5063644;28;20055;-89
2023/06/07 09:10:41;;;;;;;3.38;2.05;;;16.40;99.90;;;;;;5082946;28;20555;-90
2023/06/07 09:13:08;;;;;;;4.22;2.63;;;16.40;99.90;;;;;;5061385;28;20310;-88
2023/06/07 09:15:35;;;;;;;2.63;2.40;;;16.40;99.90;;;;;;5083526;28;20070;-87
2023/06/07 09:18:02;;;;;;;3.20;2.05;;;16.50;99.90;;;;;;5066243;28;20078;-89
2023/06/07 09:20:33;;;;;;;4.25;2.75;;;16.40;99.90;;;;;;5084080;28;20056;-83
2023/06/07 09:23:03;;;;;;;3.30;2.05;;;16.30;99.90;;;;;;5066792;28;20044;-87
2023/06/07 09:25:30;;;;;;;2.95;2.22;;;16.50;99.90;;;;;;5078101;28;20044;-87
2023/06/07 09:27:57;;;;;;;4.15;2.47;;;16.60;99.90;;;;;;5073115;28;20051;-85
2023/06/07 09:30:25;;;;;;;3.40;2.42;;;16.70;99.90;;;;;;5077796;28;20060;-89
2023/06/07 09:32:52;;;;;;;2.85;1.50;;;16.70;99.90;;;;;;5059734;28;20079;-87
2023/06/07 09:35:19;;;;;;;3.00;1.90;;;16.90;99.90;;;;;;5094686;28;20158;-89
2023/06/07 09:37:54;;;;;;;2.25;1.48;;;17.10;99.90;;;;;;5107332;28;20044;-86
2023/06/07 09:40:22;;;;;;;2.58;1.90;;;17.30;99.90;;;;;;5073959;28;20049;-86
2023/06/07 09:42:59;;;;;;;2.95;2.15;;;17.30;99.90;;;;;;5085888;28;20071;-86
2023/06/07 09:45:26;;;;;;;3.40;2.17;;;17.20;99.90;;;;;;5086463;28;20051;-88
2023/06/07 09:48:04;;;;;;;2.25;1.60;;;17.20;99.90;;;;;;5085429;28;20050;-88
2023/06/07 09:50:31;;;;;;;2.42;1.80;;;17.40;99.90;;;;;;5068462;28;20090;-88
2023/06/07 09:52:58;;;;;;;2.15;1.67;;;17.50;99.90;;;;;;5078996;28;20135;-87
2023/06/07 09:55:27;;;;;;;2.97;1.80;;;17.50;99.90;;;;;;5087167;28;20598;-87
2023/06/07 09:57:55;;;;;;;3.45;2.15;;;17.60;99.90;;;;;;5085195;28;20135;-88
2023/06/07 10:00:23;;;;;;;4.28;2.45;;;17.50;99.90;;;;;;5073859;28;20126;-87
2023/06/07 10:02:50;;;;;;;5.35;2.40;;;17.50;99.90;;;;;;5069704;28;20056;-85
2023/06/07 10:05:21;;;;;;;2.42;1.90;;;17.60;99.90;;;;;;5084092;28;20056;-88
2023/06/07 10:07:54;;;;;;;3.08;2.17;;;17.70;99.90;;;;;;5083047;28;20048;-86
2023/06/07 10:10:24;;;;;;;2.30;1.70;;;17.70;99.90;;;;;;5063285;28;20107;-84
2023/06/07 10:12:51;;;;;;;2.15;1.42;;;17.90;99.90;;;;;;5081121;28;20045;-84
2023/06/07 10:15:23;;;;;;;2.28;1.65;;;18.10;99.90;;;;;;5056921;28;20086;-85
2023/06/07 10:17:55;;;;;;;2.63;1.90;;;18.30;99.90;;;;;;5079658;28;20051;-84
2023/06/07 10:20:26;;;;;;;3.53;2.20;;;18.20;99.90;;;;;;5078711;28;20047;-85
2023/06/07 10:23:04;;;;;;;3.45;2.05;;;18.10;99.90;;;;;;5079164;28;20059;-84
2023/06/07 10:25:36;;;;;;;3.75;2.22;;;18.00;99.90;;;;;;5059852;28;20052;-84
2023/06/07 10:28:30;;;;;;;2.92;2.05;;;18.00;99.90;;;;;;5069870;28;20105;-85
2023/06/07 10:31:03;;;;;;;3.88;2.60;;;18.30;99.90;;;;;;5072319;28;20740;-85
2023/06/07 10:33:30;;;;;;;2.83;1.90;;;18.30;99.90;;;;;;5073924;28;20063;-85
2023/06/07 10:35:57;;;;;;;2.83;2.40;;;18.50;99.90;;;;;;5048794;28;21151;-85
2023/06/07 10:38:24;;;;;;;3.58;2.33;;;18.60;99.90;;;;;;5055542;28;20067;-84
2023/06/07 10:40:54;;;;;;;3.35;2.40;;;18.80;99.90;;;;;;5050195;28;20809;-85
2023/06/07 10:43:21;;;;;;;4.60;2.00;;;18.80;99.90;;;;;;5058374;28;20052;-85
2023/06/07 10:45:48;;;;;;;3.28;2.05;;;18.80;99.90;;;;;;5055838;28;20052;-85
2023/06/07 10:48:45;;;;;;;3.33;2.15;;;18.80;99.90;;;;;;5077176;28;20362;-84
2023/06/07 10:51:13;;;;;;;2.72;2.10;;;19.20;99.80;;;;;;5082183;28;20070;-85
2023/06/07 10:53:55;;;;;;;2.00;1.45;;;19.70;98.80;;;;;;5084258;28;20676;-84
2023/06/07 10:56:33;;;;;;;3.92;1.80;;;20.10;98.70;;;;;;5068415;28;20058;-84
2023/06/07 10:59:12;;;;;;;4.63;1.90;;;20.00;98.30;;;;;;5058400;28;20067;-84
2023/06/07 11:01:40;;;;;;;2.75;1.90;;;19.80;98.40;;;;;;5073023;28;20074;-84
2023/06/07 11:04:08;;;;;;;2.50;1.90;;;19.50;98.50;;;;;;5064879;28;20059;-82
2023/06/07 11:07:09;;;;;;;3.28;2.50;;;19.40;98.90;;;;;;5076909;28;20047;-82
2023/06/07 11:09:36;;;;;;;2.13;1.55;;;19.60;99.10;;;;;;5065649;28;20048;-83
2023/06/07 11:12:05;;;;;;;1.90;1.50;;;20.30;99.10;;;;;;5064230;28;20226;-83
2023/06/07 11:14:31;;;;;;;3.95;2.55;;;20.50;97.70;;;;;;5086714;28;20060;-83
2023/06/07 11:16:58;;;;;;;3.65;2.22;;;20.40;97.70;;;;;;5079469;28;20128;-84
2023/06/07 11:19:26;;;;;;;3.58;1.85;;;20.10;97.80;;;;;;5061458;28;20041;-83
2023/06/07 11:21:57;;;;;;;3.03;2.08;;;20.30;98.20;;;;;;5068485;28;20106;-84
2023/06/07 11:24:24;;;;;;;3.13;2.00;;;20.50;97.90;;;;;;5070431;28;20093;-83
2023/06/07 11:26:52;;;;;;;3.55;2.22;;;20.50;97.60;;;;;;5080444;28;20059;-83
2023/06/07 11:29:19;;;;;;;2.50;1.85;;;20.60;97.70;;;;;;5061768;28;20055;-84
2023/06/07 11:31:59;;;;;;;4.18;1.70;;;20.90;97.30;;;;;;5078708;28;20401;-84
2023/06/07 11:34:27;;;;;;;3.03;2.22;;;21.30;97.80;;;;;;5060768;28;20246;-85
2023/06/07 11:37:09;;;;;;;2.80;1.92;;;21.30;97.10;;;;;;5062303;28;20052;-84
2023/06/07 11:39:36;;;;;;;2.78;1.77;;;21.50;97.20;;;;;;5080155;28;20055;-84
2023/06/07 11:42:03;;;;;;;4.13;2.50;;;21.70;96.60;;;;;;5064926;28;20048;-84
2023/06/07 11:44:30;;;;;;;3.67;2.00;;;22.00;96.50;;;;;;5068965;28;20059;-85
2023/06/07 11:46:57;;;;;;;3.17;1.90;;;22.00;96.10;;;;;;5086475;28;20055;-85
2023/06/07 11:49:24;;;;;;;3.75;2.45;;;22.00;96.50;;;;;;5085197;28;20056;-83
2023/06/07 11:51:55;;;;;;;4.28;2.08;;;21.90;96.30;;;;;;5084368;28;20063;-83
2023/06/07 11:54:24;;;;;;;2.88;2.10;;;21.60;96.10;;;;;;5063930;28;20052;-83
2023/06/07 11:56:53;;;;;;;4.43;1.90;;;21.70;96.30;;;;;;5083115;28;20052;-85
2023/06/07 11:59:23;;;;;;;2.45;1.80;;;22.10;96.00;;;;;;5083155;28;20071;-84
2023/06/07 12:01:53;;;;;;;2.88;1.52;;;21.80;96.10;;;;;;5084568;28;20056;-84
2023/06/07 12:04:21;;;;;;;3.42;2.10;;;22.40;95.90;;;;;;5082473;28;20047;-84
2023/06/07 12:06:49;;;;;;;3.50;2.15;;;22.60;95.70;;;;;;5067173;28;20048;-85
2023/06/07 12:09:18;;;;;;;3.70;1.90;;;22.60;95.20;;;;;;5085283;28;20125;-84
2023/06/07 12:11:46;;;;;;;2.20;1.70;;;23.00;95.10;;;;;;5085217;28;20126;-82
2023/06/07 12:14:31;;;;;;;3.65;1.88;;;23.30;94.30;;;;;;5084955;28;20044;-84
2023/06/07 12:16:58;;;;;;;2.58;1.95;;;23.40;94.50;;;;;;5086275;28;20135;-86
2023/06/07 12:19:25;;;;;;;3.95;1.85;;;23.40;94.10;;;;;;5081586;28;20075;-83
2023/06/07 12:21:52;;;;;;;5.03;2.67;;;23.50;94.00;;;;;;5083977;28;20050;-83
2023/06/07 12:24:19;;;;;;;3.10;2.10;;;23.50;94.20;;;;;;5072373;28;20051;-84
2023/06/07 12:26:46;;;;;;;3.08;2.10;;;23.70;93.90;;;;;;5079984;28;20059;-85
2023/06/07 12:29:13;;;;;;;2.92;2.00;;;23.90;93.80;;;;;;5078650;28;20060;-85
2023/06/07 12:31:43;;;;;;;2.10;1.58;;;24.10;93.90;;;;;;5077782;28;20066;-86
2023/06/07 12:34:10;;;;;;;2.22;1.40;;;24.30;93.30;;;;;;5081493;28;20194;-85
2023/06/07 12:36:38;;;;;;;2.13;1.58;;;24.60;93.20;;;;;;5083589;28;20097;-85
2023/06/07 12:39:07;;;;;;;3.13;1.88;;;24.90;93.00;;;;;;5070978;28;20557;-84
2023/06/07 12:41:34;;;;;;;3.50;1.70;;;25.20;92.70;;;;;;5070270;28;20052;-85
2023/06/07 12:44:03;;;;;;;3.83;1.60;;;25.40;92.30;;;;;;5077699;28;20040;-84
2023/06/07 12:46:31;;;;;;;2.13;1.58;;;25.80;92.20;;;;;;5069285;28;20052;-84
2023/06/07 12:48:58;;;;;;;3.83;1.63;;;26.00;91.90;;;;;;5081750;28;20105;-84
2023/06/07 12:51:25;;;;;;;1.70;1.38;;;25.90;91.60;;;;;;5063625;28;20049;-84
2023/06/07 12:53:52;;;;;;;3.92;1.67;;;25.90;91.80;;;;;;5080556;28;20477;-84